sensor_id;sensor_type;location;lat;lon;timestamp;P1;durP1;ratioP1;P2;durP2;ratioP2
33738;SDS011;20063;51.730;11.110;2023-04-03T00:01:13;8.93;;;3.35;;
33738;SDS011;20063;51.730;11.110;2023-04-03T00:03:39;11.43;;;4.15;;
33738;SDS011;20063;51.730;11.110;2023-04-03T00:06:06;10.10;;;3.30;;
33738;SDS011;20063;51.730;11.110;2023-04-03T00:08:33;6.82;;;2.97;;
33738;SDS011;20063;51.730;11.110;2023-04-03T00:11:00;10.02;;;3.08;;
33738;SDS011;20063;51.730;11.110;2023-04-03T00:13:25;6.95;;;3.03;;
33738;SDS011;20063;51.730;11.110;2023-04-03T00:15:51;10.95;;;3.13;;
33738;SDS011;20063;51.730;11.110;2023-04-03T00:18:17;5.38;;;2.40;;
33738;SDS011;20063;51.730;11.110;2023-04-03T00:20:43;6.18;;;2.78;;
33738;SDS011;20063;51.730;11.110;2023-04-03T00:23:09;10.38;;;4.20;;
33738;SDS011;20063;51.730;11.110;2023-04-03T00:25:35;8.10;;;2.85;;
33738;SDS011;20063;51.730;11.110;2023-04-03T00:28:01;11.10;;;3.35;;
33738;SDS011;20063;51.730;11.110;2023-04-03T00:30:27;8.05;;;3.35;;
33738;SDS011;20063;51.730;11.110;2023-04-03T00:32:56;11.23;;;4.53;;
33738;SDS011;20063;51.730;11.110;2023-04-03T00:35:22;8.57;;;3.55;;
33738;SDS011;20063;51.730;11.110;2023-04-03T00:37:52;9.65;;;3.72;;
33738;SDS011;20063;51.730;11.110;2023-04-03T00:40:20;12.77;;;3.88;;
33738;SDS011;20063;51.730;11.110;2023-04-03T00:42:48;14.48;;;4.28;;
33738;SDS011;20063;51.730;11.110;2023-04-03T00:48:02;14.27;;;3.63;;
33738;SDS011;20063;51.730;11.110;2023-04-03T00:50:31;13.15;;;3.65;;
33738;SDS011;20063;51.730;11.110;2023-04-03T00:52:58;9.00;;;3.75;;
33738;SDS011;20063;51.730;11.110;2023-04-03T00:55:25;7.75;;;3.20;;
33738;SDS011;20063;51.730;11.110;2023-04-03T00:57:51;14.20;;;3.03;;
33738;SDS011;20063;51.730;11.110;2023-04-03T01:00:18;17.73;;;4.13;;
33738;SDS011;20063;51.730;11.110;2023-04-03T01:02:47;10.18;;;3.78;;
33738;SDS011;20063;51.730;11.110;2023-04-03T01:05:13;12.15;;;4.20;;
33738;SDS011;20063;51.730;11.110;2023-04-03T01:07:41;19.90;;;4.18;;
33738;SDS011;20063;51.730;11.110;2023-04-03T01:10:08;19.20;;;4.53;;
33738;SDS011;20063;51.730;11.110;2023-04-03T01:12:40;14.52;;;4.75;;
33738;SDS011;20063;51.730;11.110;2023-04-03T01:15:10;14.52;;;5.07;;
33738;SDS011;20063;51.730;11.110;2023-04-03T01:17:48;20.50;;;5.95;;
33738;SDS011;20063;51.730;11.110;2023-04-03T01:25:15;10.18;;;3.80;;
33738;SDS011;20063;51.730;11.110;2023-04-03T01:27:41;10.88;;;3.10;;
33738;SDS011;20063;51.730;11.110;2023-04-03T01:30:07;10.30;;;4.10;;
33738;SDS011;20063;51.730;11.110;2023-04-03T01:32:33;7.90;;;2.70;;
33738;SDS011;20063;51.730;11.110;2023-04-03T01:34:58;13.57;;;3.40;;
33738;SDS011;20063;51.730;11.110;2023-04-03T01:37:24;8.65;;;3.83;;
33738;SDS011;20063;51.730;11.110;2023-04-03T01:39:49;12.93;;;3.38;;
33738;SDS011;20063;51.730;11.110;2023-04-03T01:42:15;12.15;;;3.45;;
33738;SDS011;20063;51.730;11.110;2023-04-03T01:44:41;9.13;;;3.28;;
33738;SDS011;20063;51.730;11.110;2023-04-03T01:47:06;10.48;;;2.85;;
33738;SDS011;20063;51.730;11.110;2023-04-03T01:49:32;12.57;;;3.42;;
33738;SDS011;20063;51.730;11.110;2023-04-03T01:51:58;13.20;;;3.78;;
33738;SDS011;20063;51.730;11.110;2023-04-03T01:54:24;7.68;;;3.35;;
33738;SDS011;20063;51.730;11.110;2023-04-03T01:56:50;11.90;;;3.28;;
33738;SDS011;20063;51.730;11.110;2023-04-03T01:59:16;10.75;;;3.42;;
33738;SDS011;20063;51.730;11.110;2023-04-03T02:01:43;10.85;;;2.80;;
33738;SDS011;20063;51.730;11.110;2023-04-03T02:04:11;11.88;;;2.80;;
33738;SDS011;20063;51.730;11.110;2023-04-03T02:06:38;8.88;;;2.67;;
33738;SDS011;20063;51.730;11.110;2023-04-03T02:09:03;15.93;;;3.33;;
33738;SDS011;20063;51.730;11.110;2023-04-03T02:11:29;10.57;;;2.88;;
33738;SDS011;20063;51.730;11.110;2023-04-03T02:13:55;10.98;;;3.50;;
33738;SDS011;20063;51.730;11.110;2023-04-03T02:16:21;11.68;;;2.90;;
33738;SDS011;20063;51.730;11.110;2023-04-03T02:18:46;14.60;;;3.33;;
33738;SDS011;20063;51.730;11.110;2023-04-03T02:21:13;15.68;;;3.30;;
33738;SDS011;20063;51.730;11.110;2023-04-03T02:23:38;20.55;;;3.30;;
33738;SDS011;20063;51.730;11.110;2023-04-03T02:26:08;9.77;;;3.28;;
33738;SDS011;20063;51.730;11.110;2023-04-03T02:28:35;9.50;;;3.03;;
33738;SDS011;20063;51.730;11.110;2023-04-03T02:31:01;8.75;;;3.17;;
33738;SDS011;20063;51.730;11.110;2023-04-03T02:33:27;11.80;;;3.35;;
33738;SDS011;20063;51.730;11.110;2023-04-03T02:35:54;8.63;;;2.95;;
33738;SDS011;20063;51.730;11.110;2023-04-03T02:38:20;17.80;;;3.03;;
33738;SDS011;20063;51.730;11.110;2023-04-03T02:40:46;9.82;;;2.67;;
33738;SDS011;20063;51.730;11.110;2023-04-03T02:43:12;12.32;;;3.10;;
33738;SDS011;20063;51.730;11.110;2023-04-03T02:45:37;8.32;;;3.05;;
33738;SDS011;20063;51.730;11.110;2023-04-03T02:48:03;9.23;;;3.28;;
33738;SDS011;20063;51.730;11.110;2023-04-03T02:50:29;8.07;;;2.50;;
33738;SDS011;20063;51.730;11.110;2023-04-03T02:52:55;7.40;;;2.50;;
33738;SDS011;20063;51.730;11.110;2023-04-03T02:55:20;8.93;;;2.97;;
33738;SDS011;20063;51.730;11.110;2023-04-03T02:57:46;13.15;;;2.97;;
33738;SDS011;20063;51.730;11.110;2023-04-03T03:00:12;7.80;;;2.88;;
33738;SDS011;20063;51.730;11.110;2023-04-03T03:02:39;10.23;;;3.15;;
33738;SDS011;20063;51.730;11.110;2023-04-03T03:05:06;14.13;;;2.95;;
33738;SDS011;20063;51.730;11.110;2023-04-03T03:07:33;11.88;;;4.10;;
33738;SDS011;20063;51.730;11.110;2023-04-03T03:09:59;10.68;;;2.58;;
33738;SDS011;20063;51.730;11.110;2023-04-03T03:12:25;10.10;;;3.17;;
33738;SDS011;20063;51.730;11.110;2023-04-03T03:14:51;10.73;;;2.47;;
33738;SDS011;20063;51.730;11.110;2023-04-03T03:17:16;15.15;;;4.25;;
33738;SDS011;20063;51.730;11.110;2023-04-03T03:19:42;8.75;;;3.08;;
33738;SDS011;20063;51.730;11.110;2023-04-03T03:22:08;12.27;;;3.10;;
33738;SDS011;20063;51.730;11.110;2023-04-03T03:24:34;8.25;;;2.95;;
33738;SDS011;20063;51.730;11.110;2023-04-03T03:26:59;20.27;;;4.15;;
33738;SDS011;20063;51.730;11.110;2023-04-03T03:29:25;13.55;;;3.28;;
33738;SDS011;20063;51.730;11.110;2023-04-03T03:31:51;8.32;;;2.67;;
33738;SDS011;20063;51.730;11.110;2023-04-03T03:34:16;11.70;;;3.30;;
33738;SDS011;20063;51.730;11.110;2023-04-03T03:36:42;7.97;;;3.00;;
33738;SDS011;20063;51.730;11.110;2023-04-03T03:39:08;13.10;;;3.00;;
33738;SDS011;20063;51.730;11.110;2023-04-03T03:41:33;13.70;;;3.45;;
33738;SDS011;20063;51.730;11.110;2023-04-03T03:43:59;8.45;;;2.60;;
33738;SDS011;20063;51.730;11.110;2023-04-03T03:46:26;11.10;;;2.85;;
33738;SDS011;20063;51.730;11.110;2023-04-03T03:48:52;14.30;;;3.13;;
33738;SDS011;20063;51.730;11.110;2023-04-03T03:51:17;18.38;;;3.20;;
33738;SDS011;20063;51.730;11.110;2023-04-03T03:53:43;14.70;;;3.53;;
33738;SDS011;20063;51.730;11.110;2023-04-03T03:56:09;5.93;;;2.72;;
33738;SDS011;20063;51.730;11.110;2023-04-03T03:58:35;13.20;;;3.25;;
33738;SDS011;20063;51.730;11.110;2023-04-03T04:01:05;16.20;;;3.45;;
33738;SDS011;20063;51.730;11.110;2023-04-03T04:03:31;8.02;;;3.13;;
33738;SDS011;20063;51.730;11.110;2023-04-03T04:06:00;19.10;;;3.47;;
33738;SDS011;20063;51.730;11.110;2023-04-03T04:08:26;6.38;;;2.67;;
33738;SDS011;20063;51.730;11.110;2023-04-03T04:10:51;15.68;;;3.35;;
33738;SDS011;20063;51.730;11.110;2023-04-03T04:13:17;15.70;;;3.63;;
33738;SDS011;20063;51.730;11.110;2023-04-03T04:15:43;16.00;;;4.30;;
33738;SDS011;20063;51.730;11.110;2023-04-03T04:18:09;15.85;;;3.40;;
33738;SDS011;20063;51.730;11.110;2023-04-03T04:20:34;11.77;;;3.33;;
33738;SDS011;20063;51.730;11.110;2023-04-03T04:23:00;19.15;;;3.83;;
33738;SDS011;20063;51.730;11.110;2023-04-03T04:25:26;12.75;;;2.95;;
33738;SDS011;20063;51.730;11.110;2023-04-03T04:27:51;17.73;;;3.45;;
33738;SDS011;20063;51.730;11.110;2023-04-03T04:30:17;10.10;;;3.00;;
33738;SDS011;20063;51.730;11.110;2023-04-03T04:32:42;10.23;;;3.17;;
33738;SDS011;20063;51.730;11.110;2023-04-03T04:35:08;6.68;;;2.88;;
33738;SDS011;20063;51.730;11.110;2023-04-03T04:37:34;15.90;;;2.85;;
33738;SDS011;20063;51.730;11.110;2023-04-03T04:40:00;18.17;;;3.55;;
33738;SDS011;20063;51.730;11.110;2023-04-03T04:42:26;19.20;;;3.45;;
33738;SDS011;20063;51.730;11.110;2023-04-03T04:44:52;12.52;;;3.08;;
33738;SDS011;20063;51.730;11.110;2023-04-03T04:47:18;11.90;;;3.15;;
33738;SDS011;20063;51.730;11.110;2023-04-03T04:49:43;9.00;;;2.95;;
33738;SDS011;20063;51.730;11.110;2023-04-03T04:52:12;20.33;;;5.13;;
33738;SDS011;20063;51.730;11.110;2023-04-03T04:54:38;16.50;;;3.40;;
33738;SDS011;20063;51.730;11.110;2023-04-03T04:57:04;11.70;;;3.13;;
33738;SDS011;20063;51.730;11.110;2023-04-03T04:59:29;16.63;;;3.42;;
33738;SDS011;20063;51.730;11.110;2023-04-03T05:01:55;15.52;;;3.35;;
33738;SDS011;20063;51.730;11.110;2023-04-03T05:04:20;16.95;;;3.25;;
33738;SDS011;20063;51.730;11.110;2023-04-03T05:06:46;11.82;;;3.47;;
33738;SDS011;20063;51.730;11.110;2023-04-03T05:09:15;9.77;;;3.30;;
33738;SDS011;20063;51.730;11.110;2023-04-03T05:11:41;11.57;;;3.08;;
33738;SDS011;20063;51.730;11.110;2023-04-03T05:14:07;8.02;;;3.55;;
33738;SDS011;20063;51.730;11.110;2023-04-03T05:16:33;16.25;;;4.10;;
33738;SDS011;20063;51.730;11.110;2023-04-03T05:18:59;10.75;;;3.67;;
33738;SDS011;20063;51.730;11.110;2023-04-03T05:21:25;13.07;;;3.65;;
33738;SDS011;20063;51.730;11.110;2023-04-03T05:23:52;11.75;;;3.60;;
33738;SDS011;20063;51.730;11.110;2023-04-03T05:26:18;11.82;;;4.05;;
33738;SDS011;20063;51.730;11.110;2023-04-03T05:28:43;9.98;;;3.75;;
33738;SDS011;20063;51.730;11.110;2023-04-03T05:31:09;15.02;;;4.00;;
33738;SDS011;20063;51.730;11.110;2023-04-03T05:33:35;19.45;;;4.65;;
33738;SDS011;20063;51.730;11.110;2023-04-03T05:36:03;21.63;;;4.05;;
33738;SDS011;20063;51.730;11.110;2023-04-03T05:38:32;17.38;;;3.88;;
33738;SDS011;20063;51.730;11.110;2023-04-03T05:40:58;11.07;;;3.38;;
33738;SDS011;20063;51.730;11.110;2023-04-03T05:43:23;12.02;;;3.13;;
33738;SDS011;20063;51.730;11.110;2023-04-03T05:45:50;10.90;;;3.63;;
33738;SDS011;20063;51.730;11.110;2023-04-03T05:48:16;14.45;;;3.53;;
33738;SDS011;20063;51.730;11.110;2023-04-03T05:50:42;9.07;;;3.78;;
33738;SDS011;20063;51.730;11.110;2023-04-03T05:53:29;15.00;;;4.78;;
33738;SDS011;20063;51.730;11.110;2023-04-03T05:55:56;17.50;;;4.07;;
33738;SDS011;20063;51.730;11.110;2023-04-03T05:58:21;19.30;;;5.78;;
33738;SDS011;20063;51.730;11.110;2023-04-03T06:00:47;23.40;;;5.43;;
33738;SDS011;20063;51.730;11.110;2023-04-03T06:03:16;15.02;;;5.35;;
33738;SDS011;20063;51.730;11.110;2023-04-03T06:05:42;20.10;;;6.88;;
33738;SDS011;20063;51.730;11.110;2023-04-03T06:08:09;16.90;;;4.95;;
33738;SDS011;20063;51.730;11.110;2023-04-03T06:10:36;16.17;;;5.47;;
33738;SDS011;20063;51.730;11.110;2023-04-03T06:13:01;16.73;;;4.82;;
33738;SDS011;20063;51.730;11.110;2023-04-03T06:15:27;22.00;;;4.25;;
33738;SDS011;20063;51.730;11.110;2023-04-03T06:17:53;24.52;;;5.10;;
33738;SDS011;20063;51.730;11.110;2023-04-03T06:20:18;14.98;;;4.25;;
33738;SDS011;20063;51.730;11.110;2023-04-03T06:22:47;8.77;;;3.83;;
33738;SDS011;20063;51.730;11.110;2023-04-03T06:25:15;13.57;;;3.67;;
33738;SDS011;20063;51.730;11.110;2023-04-03T06:27:43;20.55;;;3.97;;
33738;SDS011;20063;51.730;11.110;2023-04-03T06:30:11;27.98;;;7.80;;
33738;SDS011;20063;51.730;11.110;2023-04-03T06:32:38;8.65;;;3.70;;
33738;SDS011;20063;51.730;11.110;2023-04-03T06:35:04;17.42;;;4.07;;
33738;SDS011;20063;51.730;11.110;2023-04-03T06:37:30;17.95;;;4.85;;
33738;SDS011;20063;51.730;11.110;2023-04-03T06:39:57;14.40;;;6.13;;
33738;SDS011;20063;51.730;11.110;2023-04-03T06:42:23;13.05;;;4.18;;
33738;SDS011;20063;51.730;11.110;2023-04-03T06:44:48;23.92;;;5.15;;
33738;SDS011;20063;51.730;11.110;2023-04-03T06:47:15;21.27;;;3.97;;
33738;SDS011;20063;51.730;11.110;2023-04-03T06:49:41;10.90;;;3.80;;
33738;SDS011;20063;51.730;11.110;2023-04-03T06:52:07;7.35;;;3.20;;
33738;SDS011;20063;51.730;11.110;2023-04-03T06:54:33;21.17;;;5.40;;
33738;SDS011;20063;51.730;11.110;2023-04-03T06:56:59;20.50;;;4.65;;
33738;SDS011;20063;51.730;11.110;2023-04-03T06:59:25;15.10;;;4.18;;
33738;SDS011;20063;51.730;11.110;2023-04-03T07:01:51;14.55;;;3.85;;
33738;SDS011;20063;51.730;11.110;2023-04-03T07:04:17;22.95;;;4.15;;
33738;SDS011;20063;51.730;11.110;2023-04-03T07:06:45;13.45;;;4.10;;
33738;SDS011;20063;51.730;11.110;2023-04-03T07:09:11;6.30;;;2.97;;
33738;SDS011;20063;51.730;11.110;2023-04-03T07:11:38;8.70;;;3.13;;
33738;SDS011;20063;51.730;11.110;2023-04-03T07:14:05;18.88;;;4.68;;
33738;SDS011;20063;51.730;11.110;2023-04-03T07:16:32;12.70;;;3.55;;
33738;SDS011;20063;51.730;11.110;2023-04-03T07:18:59;17.88;;;3.80;;
33738;SDS011;20063;51.730;11.110;2023-04-03T07:21:25;12.35;;;3.42;;
33738;SDS011;20063;51.730;11.110;2023-04-03T07:23:50;11.30;;;3.10;;
33738;SDS011;20063;51.730;11.110;2023-04-03T07:26:16;15.27;;;4.28;;
33738;SDS011;20063;51.730;11.110;2023-04-03T07:28:42;11.82;;;3.17;;
33738;SDS011;20063;51.730;11.110;2023-04-03T07:31:11;13.50;;;3.58;;
33738;SDS011;20063;51.730;11.110;2023-04-03T07:33:38;18.98;;;3.70;;
33738;SDS011;20063;51.730;11.110;2023-04-03T07:36:05;18.02;;;3.85;;
33738;SDS011;20063;51.730;11.110;2023-04-03T07:38:32;10.98;;;3.25;;
33738;SDS011;20063;51.730;11.110;2023-04-03T07:40:58;7.20;;;3.30;;
33738;SDS011;20063;51.730;11.110;2023-04-03T07:43:24;12.27;;;2.88;;
33738;SDS011;20063;51.730;11.110;2023-04-03T07:45:50;18.90;;;3.67;;
33738;SDS011;20063;51.730;11.110;2023-04-03T07:48:23;11.90;;;2.97;;
33738;SDS011;20063;51.730;11.110;2023-04-03T07:50:50;12.15;;;3.88;;
33738;SDS011;20063;51.730;11.110;2023-04-03T07:53:17;10.68;;;3.20;;
33738;SDS011;20063;51.730;11.110;2023-04-03T07:55:46;10.00;;;3.13;;
33738;SDS011;20063;51.730;11.110;2023-04-03T07:58:13;12.80;;;3.55;;
33738;SDS011;20063;51.730;11.110;2023-04-03T08:00:41;12.15;;;3.13;;
33738;SDS011;20063;51.730;11.110;2023-04-03T08:03:08;14.60;;;3.85;;
33738;SDS011;20063;51.730;11.110;2023-04-03T08:05:42;9.70;;;3.85;;
33738;SDS011;20063;51.730;11.110;2023-04-03T08:08:11;15.43;;;3.45;;
33738;SDS011;20063;51.730;11.110;2023-04-03T08:10:40;13.35;;;3.15;;
33738;SDS011;20063;51.730;11.110;2023-04-03T08:13:06;14.93;;;3.85;;
33738;SDS011;20063;51.730;11.110;2023-04-03T08:15:33;12.00;;;3.60;;
33738;SDS011;20063;51.730;11.110;2023-04-03T08:17:59;12.20;;;3.03;;
33738;SDS011;20063;51.730;11.110;2023-04-03T08:20:25;13.82;;;2.90;;
33738;SDS011;20063;51.730;11.110;2023-04-03T08:22:52;13.13;;;2.72;;
33738;SDS011;20063;51.730;11.110;2023-04-03T08:25:18;10.43;;;3.03;;
33738;SDS011;20063;51.730;11.110;2023-04-03T08:27:44;12.93;;;3.17;;
33738;SDS011;20063;51.730;11.110;2023-04-03T08:30:10;11.68;;;2.95;;
33738;SDS011;20063;51.730;11.110;2023-04-03T08:32:36;6.80;;;3.15;;
33738;SDS011;20063;51.730;11.110;2023-04-03T08:35:02;20.88;;;3.83;;
33738;SDS011;20063;51.730;11.110;2023-04-03T08:37:29;15.63;;;4.30;;
33738;SDS011;20063;51.730;11.110;2023-04-03T08:39:55;11.90;;;3.45;;
33738;SDS011;20063;51.730;11.110;2023-04-03T08:42:33;14.75;;;5.07;;
33738;SDS011;20063;51.730;11.110;2023-04-03T08:48:16;12.95;;;3.08;;
33738;SDS011;20063;51.730;11.110;2023-04-03T08:50:47;8.15;;;3.47;;
33738;SDS011;20063;51.730;11.110;2023-04-03T08:53:26;23.77;;;4.30;;
33738;SDS011;20063;51.730;11.110;2023-04-03T08:55:57;14.00;;;4.72;;
33738;SDS011;20063;51.730;11.110;2023-04-03T08:58:26;10.10;;;3.65;;
33738;SDS011;20063;51.730;11.110;2023-04-03T09:01:00;8.63;;;3.30;;
33738;SDS011;20063;51.730;11.110;2023-04-03T09:03:47;19.92;;;5.97;;
33738;SDS011;20063;51.730;11.110;2023-04-03T09:06:14;9.90;;;3.97;;
33738;SDS011;20063;51.730;11.110;2023-04-03T09:21:58;13.18;;;3.30;;
33738;SDS011;20063;51.730;11.110;2023-04-03T09:24:27;8.82;;;3.58;;
33738;SDS011;20063;51.730;11.110;2023-04-03T09:27:00;13.00;;;3.25;;
33738;SDS011;20063;51.730;11.110;2023-04-03T09:29:29;16.45;;;3.45;;
33738;SDS011;20063;51.730;11.110;2023-04-03T09:32:02;11.52;;;3.10;;
33738;SDS011;20063;51.730;11.110;2023-04-03T09:34:47;9.70;;;2.80;;
33738;SDS011;20063;51.730;11.110;2023-04-03T09:37:32;9.63;;;2.72;;
33738;SDS011;20063;51.730;11.110;2023-04-03T09:48:17;13.50;;;3.30;;
33738;SDS011;20063;51.730;11.110;2023-04-03T09:53:30;17.15;;;2.92;;
33738;SDS011;20063;51.730;11.110;2023-04-03T10:01:26;10.82;;;3.58;;
33738;SDS011;20063;51.730;11.110;2023-04-03T10:06:36;15.82;;;4.03;;
33738;SDS011;20063;51.730;11.110;2023-04-03T10:09:07;12.93;;;4.15;;
33738;SDS011;20063;51.730;11.110;2023-04-03T10:12:11;13.07;;;3.65;;
33738;SDS011;20063;51.730;11.110;2023-04-03T10:14:57;7.90;;;2.22;;
33738;SDS011;20063;51.730;11.110;2023-04-03T10:20:33;9.68;;;2.58;;
33738;SDS011;20063;51.730;11.110;2023-04-03T10:23:12;11.30;;;3.35;;
33738;SDS011;20063;51.730;11.110;2023-04-03T10:28:10;9.70;;;2.65;;
33738;SDS011;20063;51.730;11.110;2023-04-03T10:30:49;5.10;;;1.92;;
33738;SDS011;20063;51.730;11.110;2023-04-03T10:33:34;12.82;;;2.78;;
33738;SDS011;20063;51.730;11.110;2023-04-03T10:36:06;7.00;;;2.08;;
33738;SDS011;20063;51.730;11.110;2023-04-03T10:38:51;9.77;;;2.20;;
33738;SDS011;20063;51.730;11.110;2023-04-03T10:47:18;14.68;;;4.32;;
33738;SDS011;20063;51.730;11.110;2023-04-03T10:55:31;7.90;;;2.92;;
33738;SDS011;20063;51.730;11.110;2023-04-03T10:58:02;7.30;;;3.85;;
33738;SDS011;20063;51.730;11.110;2023-04-03T11:00:35;8.93;;;3.30;;
33738;SDS011;20063;51.730;11.110;2023-04-03T11:03:15;6.68;;;2.60;;
33738;SDS011;20063;51.730;11.110;2023-04-03T11:05:52;8.75;;;2.65;;
33738;SDS011;20063;51.730;11.110;2023-04-03T11:11:16;9.80;;;2.38;;
33738;SDS011;20063;51.730;11.110;2023-04-03T11:14:01;7.60;;;2.35;;
33738;SDS011;20063;51.730;11.110;2023-04-03T11:16:36;5.85;;;2.03;;
33738;SDS011;20063;51.730;11.110;2023-04-03T11:19:21;10.48;;;2.47;;
33738;SDS011;20063;51.730;11.110;2023-04-03T11:22:16;12.30;;;2.15;;
33738;SDS011;20063;51.730;11.110;2023-04-03T11:25:14;6.90;;;1.80;;
33738;SDS011;20063;51.730;11.110;2023-04-03T11:27:41;6.68;;;2.80;;
33738;SDS011;20063;51.730;11.110;2023-04-03T11:30:17;5.45;;;1.85;;
33738;SDS011;20063;51.730;11.110;2023-04-03T11:35:29;7.13;;;2.20;;
33738;SDS011;20063;51.730;11.110;2023-04-03T11:37:56;10.77;;;2.22;;
33738;SDS011;20063;51.730;11.110;2023-04-03T11:40:26;9.07;;;2.35;;
33738;SDS011;20063;51.730;11.110;2023-04-03T11:51:06;6.45;;;2.70;;
33738;SDS011;20063;51.730;11.110;2023-04-03T11:53:45;6.80;;;2.70;;
33738;SDS011;20063;51.730;11.110;2023-04-03T12:04:14;8.50;;;2.13;;
33738;SDS011;20063;51.730;11.110;2023-04-03T12:09:27;6.65;;;2.55;;
33738;SDS011;20063;51.730;11.110;2023-04-03T12:11:56;11.18;;;2.13;;
33738;SDS011;20063;51.730;11.110;2023-04-03T12:14:25;5.38;;;2.58;;
33738;SDS011;20063;51.730;11.110;2023-04-03T12:16:55;8.00;;;2.30;;
33738;SDS011;20063;51.730;11.110;2023-04-03T12:19:35;7.82;;;2.30;;
33738;SDS011;20063;51.730;11.110;2023-04-03T12:22:06;8.88;;;2.25;;
33738;SDS011;20063;51.730;11.110;2023-04-03T12:24:37;5.72;;;2.50;;
33738;SDS011;20063;51.730;11.110;2023-04-03T12:27:25;7.00;;;2.17;;
33738;SDS011;20063;51.730;11.110;2023-04-03T12:30:22;8.88;;;2.15;;
33738;SDS011;20063;51.730;11.110;2023-04-03T12:35:37;6.75;;;2.30;;
33738;SDS011;20063;51.730;11.110;2023-04-03T12:47:07;8.95;;;2.30;;
33738;SDS011;20063;51.730;11.110;2023-04-03T12:52:02;6.25;;;2.28;;
33738;SDS011;20063;51.730;11.110;2023-04-03T12:54:38;7.88;;;2.30;;
33738;SDS011;20063;51.730;11.110;2023-04-03T12:59:46;6.40;;;2.20;;
33738;SDS011;20063;51.730;11.110;2023-04-03T13:02:31;7.60;;;2.72;;
33738;SDS011;20063;51.730;11.110;2023-04-03T13:05:07;3.65;;;2.13;;
33738;SDS011;20063;51.730;11.110;2023-04-03T13:07:35;6.18;;;2.55;;
33738;SDS011;20063;51.730;11.110;2023-04-03T13:12:32;7.07;;;2.10;;
33738;SDS011;20063;51.730;11.110;2023-04-03T13:15:00;6.05;;;2.50;;
33738;SDS011;20063;51.730;11.110;2023-04-03T13:17:29;10.25;;;3.20;;
33738;SDS011;20063;51.730;11.110;2023-04-03T13:19:57;8.63;;;2.42;;
33738;SDS011;20063;51.730;11.110;2023-04-03T13:25:17;11.50;;;4.47;;
33738;SDS011;20063;51.730;11.110;2023-04-03T13:27:46;6.65;;;2.22;;
33738;SDS011;20063;51.730;11.110;2023-04-03T13:30:54;7.32;;;2.75;;
33738;SDS011;20063;51.730;11.110;2023-04-03T13:33:17;7.95;;;2.63;;
33738;SDS011;20063;51.730;11.110;2023-04-03T13:35:45;7.68;;;2.20;;
33738;SDS011;20063;51.730;11.110;2023-04-03T13:40:47;16.50;;;3.10;;
33738;SDS011;20063;51.730;11.110;2023-04-03T13:43:20;9.45;;;2.25;;
33738;SDS011;20063;51.730;11.110;2023-04-03T13:45:57;5.13;;;2.30;;
33738;SDS011;20063;51.730;11.110;2023-04-03T13:48:42;2.20;;;1.67;;
33738;SDS011;20063;51.730;11.110;2023-04-03T13:56:17;3.92;;;2.00;;
33738;SDS011;20063;51.730;11.110;2023-04-03T14:01:43;7.90;;;2.45;;
33738;SDS011;20063;51.730;11.110;2023-04-03T14:06:53;9.43;;;2.38;;
33738;SDS011;20063;51.730;11.110;2023-04-03T14:09:19;3.83;;;2.28;;
33738;SDS011;20063;51.730;11.110;2023-04-03T14:11:48;9.70;;;2.35;;
33738;SDS011;20063;51.730;11.110;2023-04-03T14:14:24;5.35;;;2.28;;
33738;SDS011;20063;51.730;11.110;2023-04-03T14:16:56;5.60;;;2.53;;
33738;SDS011;20063;51.730;11.110;2023-04-03T14:19:43;6.82;;;2.78;;
33738;SDS011;20063;51.730;11.110;2023-04-03T14:22:14;8.13;;;2.20;;
33738;SDS011;20063;51.730;11.110;2023-04-03T14:24:43;12.75;;;3.00;;
33738;SDS011;20063;51.730;11.110;2023-04-03T14:27:56;10.70;;;3.28;;
33738;SDS011;20063;51.730;11.110;2023-04-03T14:30:01;10.27;;;2.92;;
33738;SDS011;20063;51.730;11.110;2023-04-03T14:32:28;11.65;;;2.72;;
33738;SDS011;20063;51.730;11.110;2023-04-03T14:34:54;5.13;;;2.17;;
33738;SDS011;20063;51.730;11.110;2023-04-03T14:37:23;5.25;;;2.00;;
33738;SDS011;20063;51.730;11.110;2023-04-03T14:39:53;6.25;;;2.08;;
33738;SDS011;20063;51.730;11.110;2023-04-03T14:42:20;7.60;;;2.25;;
33738;SDS011;20063;51.730;11.110;2023-04-03T14:44:50;11.93;;;2.40;;
33738;SDS011;20063;51.730;11.110;2023-04-03T14:47:18;11.18;;;2.10;;
33738;SDS011;20063;51.730;11.110;2023-04-03T14:49:46;4.20;;;1.92;;
33738;SDS011;20063;51.730;11.110;2023-04-03T14:52:25;3.58;;;2.03;;
33738;SDS011;20063;51.730;11.110;2023-04-03T14:54:56;5.97;;;2.42;;
33738;SDS011;20063;51.730;11.110;2023-04-03T14:57:25;10.23;;;2.70;;
33738;SDS011;20063;51.730;11.110;2023-04-03T14:59:52;3.00;;;1.92;;
33738;SDS011;20063;51.730;11.110;2023-04-03T15:02:32;8.23;;;3.05;;
33738;SDS011;20063;51.730;11.110;2023-04-03T15:04:59;5.03;;;2.15;;
33738;SDS011;20063;51.730;11.110;2023-04-03T15:07:29;12.70;;;3.10;;
33738;SDS011;20063;51.730;11.110;2023-04-03T15:09:57;7.10;;;3.03;;
33738;SDS011;20063;51.730;11.110;2023-04-03T15:12:24;5.78;;;2.33;;
33738;SDS011;20063;51.730;11.110;2023-04-03T15:14:50;9.90;;;3.13;;
33738;SDS011;20063;51.730;11.110;2023-04-03T15:17:16;19.58;;;6.85;;
33738;SDS011;20063;51.730;11.110;2023-04-03T15:19:44;10.23;;;3.90;;
33738;SDS011;20063;51.730;11.110;2023-04-03T15:22:14;5.63;;;2.40;;
33738;SDS011;20063;51.730;11.110;2023-04-03T15:24:43;7.97;;;2.63;;
33738;SDS011;20063;51.730;11.110;2023-04-03T15:27:10;6.70;;;2.40;;
33738;SDS011;20063;51.730;11.110;2023-04-03T15:29:40;5.53;;;2.72;;
33738;SDS011;20063;51.730;11.110;2023-04-03T15:32:11;5.95;;;3.03;;
33738;SDS011;20063;51.730;11.110;2023-04-03T15:34:38;16.85;;;6.00;;
33738;SDS011;20063;51.730;11.110;2023-04-03T15:37:04;25.73;;;9.45;;
33738;SDS011;20063;51.730;11.110;2023-04-03T15:39:30;36.58;;;15.43;;
33738;SDS011;20063;51.730;11.110;2023-04-03T15:41:56;19.67;;;8.30;;
33738;SDS011;20063;51.730;11.110;2023-04-03T15:44:30;28.60;;;8.50;;
33738;SDS011;20063;51.730;11.110;2023-04-03T15:46:57;43.28;;;12.63;;
33738;SDS011;20063;51.730;11.110;2023-04-03T15:49:24;48.13;;;11.73;;
33738;SDS011;20063;51.730;11.110;2023-04-03T15:51:51;22.80;;;6.35;;
33738;SDS011;20063;51.730;11.110;2023-04-03T15:54:16;42.90;;;11.00;;
33738;SDS011;20063;51.730;11.110;2023-04-03T15:56:42;12.45;;;4.60;;
33738;SDS011;20063;51.730;11.110;2023-04-03T15:59:08;23.73;;;7.95;;
33738;SDS011;20063;51.730;11.110;2023-04-03T16:01:34;11.50;;;4.13;;
33738;SDS011;20063;51.730;11.110;2023-04-03T16:04:02;6.88;;;2.60;;
33738;SDS011;20063;51.730;11.110;2023-04-03T16:06:28;7.03;;;2.65;;
33738;SDS011;20063;51.730;11.110;2023-04-03T16:08:56;7.78;;;2.25;;
33738;SDS011;20063;51.730;11.110;2023-04-03T16:11:23;5.78;;;2.00;;
33738;SDS011;20063;51.730;11.110;2023-04-03T16:13:50;6.78;;;2.47;;
33738;SDS011;20063;51.730;11.110;2023-04-03T16:16:16;6.40;;;2.53;;
33738;SDS011;20063;51.730;11.110;2023-04-03T16:18:42;6.80;;;2.53;;
33738;SDS011;20063;51.730;11.110;2023-04-03T16:21:07;11.10;;;2.50;;
33738;SDS011;20063;51.730;11.110;2023-04-03T16:23:34;7.53;;;2.30;;
33738;SDS011;20063;51.730;11.110;2023-04-03T16:26:01;6.57;;;2.80;;
33738;SDS011;20063;51.730;11.110;2023-04-03T16:28:27;8.75;;;2.55;;
33738;SDS011;20063;51.730;11.110;2023-04-03T16:30:52;7.03;;;2.75;;
33738;SDS011;20063;51.730;11.110;2023-04-03T16:33:18;7.07;;;2.40;;
33738;SDS011;20063;51.730;11.110;2023-04-03T16:35:46;10.68;;;2.70;;